createdAt,value
2018-06-08T00:01:22.655Z,2.07
2018-06-08T00:03:50.834Z,2.00
2018-06-08T00:06:18.905Z,2.00
2018-06-08T00:08:47.023Z,2.10
2018-06-08T00:11:15.119Z,2.10
2018-06-08T00:13:43.186Z,1.70
2018-06-08T00:16:11.177Z,1.77
2018-06-08T00:18:39.270Z,2.10
2018-06-08T00:21:07.380Z,1.97
2018-06-08T00:23:35.457Z,1.80
2018-06-08T00:26:03.518Z,2.20
2018-06-08T00:28:31.614Z,2.03
2018-06-08T00:30:59.530Z,2.40
2018-06-08T00:33:27.603Z,2.27
2018-06-08T00:35:55.685Z,2.10
2018-06-08T00:38:23.740Z,2.03
2018-06-08T00:40:51.797Z,2.10
2018-06-08T00:43:19.876Z,2.23
2018-06-08T00:45:47.978Z,2.00
2018-06-08T00:48:16.063Z,2.20
2018-06-08T00:50:44.173Z,2.10
2018-06-08T00:53:12.261Z,2.00
2018-06-08T00:55:40.344Z,1.93
2018-06-08T00:58:08.459Z,2.10
2018-06-08T01:00:36.551Z,2.17
2018-06-08T01:03:04.649Z,2.20
2018-06-08T01:05:32.779Z,2.10
2018-06-08T01:08:00.850Z,2.10
2018-06-08T01:10:28.922Z,1.93
2018-06-08T01:12:56.997Z,1.90
2018-06-08T01:15:25.103Z,1.83
2018-06-08T01:17:53.208Z,2.30
2018-06-08T01:20:21.279Z,2.80
2018-06-08T01:22:49.165Z,2.13
2018-06-08T01:25:17.236Z,2.23
2018-06-08T01:27:45.334Z,2.30
2018-06-08T01:30:13.399Z,2.10
2018-06-08T01:32:41.469Z,2.10
2018-06-08T01:35:09.577Z,1.97
2018-06-08T01:37:37.692Z,2.07
2018-06-08T01:40:05.766Z,1.90
2018-06-08T01:42:33.895Z,2.10
2018-06-08T01:45:01.983Z,1.90
2018-06-08T01:47:30.061Z,2.57
2018-06-08T01:49:57.978Z,1.80
2018-06-08T01:52:26.058Z,2.07
2018-06-08T01:54:54.176Z,2.00
2018-06-08T01:57:22.184Z,2.50
2018-06-08T01:59:50.261Z,1.90
2018-06-08T02:02:18.385Z,2.37
2018-06-08T02:04:46.452Z,2.10
2018-06-08T02:07:14.535Z,2.20
2018-06-08T02:09:42.599Z,2.00
2018-06-08T02:12:10.662Z,2.10
2018-06-08T02:14:38.718Z,2.03
2018-06-08T02:17:06.820Z,2.00
2018-06-08T02:19:34.903Z,2.27
2018-06-08T02:22:02.953Z,2.47
2018-06-08T02:24:31.017Z,2.07
2018-06-08T02:26:59.142Z,2.30
2018-06-08T02:29:27.267Z,2.13
2018-06-08T02:31:55.353Z,2.43
2018-06-08T02:34:23.502Z,2.07
2018-06-08T02:36:51.571Z,2.10
2018-06-08T02:39:19.644Z,2.50
2018-06-08T02:41:47.731Z,2.10
2018-06-08T02:44:15.791Z,2.57
2018-06-08T02:46:43.900Z,2.33
2018-06-08T02:49:12.024Z,2.40
2018-06-08T02:51:40.108Z,2.20
2018-06-08T02:54:08.190Z,2.20
2018-06-08T02:56:36.248Z,2.00
2018-06-08T02:59:04.391Z,2.13
2018-06-08T03:01:32.492Z,2.10
2018-06-08T03:04:00.582Z,2.67
2018-06-08T03:06:28.705Z,2.40
2018-06-08T03:08:56.834Z,2.30
2018-06-08T03:11:24.919Z,2.20
2018-06-08T03:13:52.991Z,2.30
2018-06-08T03:16:21.089Z,2.43
2018-06-08T03:18:49.195Z,2.30
2018-06-08T03:21:17.324Z,2.67
2018-06-08T03:23:45.368Z,2.40
2018-06-08T03:26:13.439Z,2.70
2018-06-08T03:28:41.509Z,2.60
2018-06-08T03:31:09.555Z,2.50
2018-06-08T03:33:37.623Z,2.10
2018-06-08T03:36:05.535Z,2.70
2018-06-08T03:38:33.571Z,2.80
2018-06-08T03:41:01.687Z,2.40
2018-06-08T03:43:29.750Z,2.60
2018-06-08T03:45:57.817Z,2.37
2018-06-08T03:48:25.898Z,2.83
2018-06-08T03:50:54.008Z,2.87
2018-06-08T03:53:22.104Z,2.50
2018-06-08T03:55:50.310Z,2.63
2018-06-08T03:58:18.426Z,2.50
2018-06-08T04:00:46.502Z,2.57
2018-06-08T04:03:14.586Z,2.50
2018-06-08T04:05:42.677Z,2.70
2018-06-08T04:08:10.770Z,2.73
2018-06-08T04:10:38.889Z,2.70
2018-06-08T04:13:07.021Z,2.80
2018-06-08T04:15:35.133Z,2.57
2018-06-08T04:18:03.236Z,2.50
2018-06-08T04:20:31.890Z,2.60
2018-06-08T04:22:59.978Z,3.00
2018-06-08T04:25:28.097Z,2.90
2018-06-08T04:27:56.197Z,2.77
2018-06-08T04:30:24.266Z,3.07
2018-06-08T04:32:52.442Z,3.03
2018-06-08T04:35:20.455Z,3.20
2018-06-08T04:37:48.480Z,3.00
2018-06-08T04:40:16.591Z,2.80
2018-06-08T04:42:44.953Z,3.10
2018-06-08T04:45:13.172Z,2.57
2018-06-08T04:47:41.292Z,2.60
2018-06-08T04:50:09.381Z,2.40
2018-06-08T04:52:37.439Z,3.27
2018-06-08T04:55:05.623Z,3.50
2018-06-08T04:57:33.700Z,2.90
2018-06-08T05:00:01.777Z,3.03
2018-06-08T05:02:29.860Z,3.13
2018-06-08T05:04:57.957Z,3.10
2018-06-08T05:07:26.034Z,3.20
2018-06-08T05:09:54.111Z,3.00
2018-06-08T05:12:22.224Z,3.80
2018-06-08T05:14:50.346Z,2.90
2018-06-08T05:17:18.492Z,3.20
2018-06-08T05:19:46.595Z,3.33
2018-06-08T05:22:14.712Z,3.47
2018-06-08T05:24:42.854Z,2.97
2018-06-08T05:27:10.926Z,3.20
2018-06-08T05:29:38.890Z,3.10
2018-06-08T05:32:07.027Z,3.03
2018-06-08T05:34:35.233Z,3.00
2018-06-08T05:37:03.354Z,3.10
2018-06-08T05:39:31.433Z,3.33
2018-06-08T05:41:59.513Z,3.40
2018-06-08T05:44:27.578Z,3.40
2018-06-08T05:46:55.723Z,2.90
2018-06-08T05:49:23.590Z,3.00
2018-06-08T05:51:51.469Z,3.07
2018-06-08T05:54:19.613Z,2.90
2018-06-08T05:56:47.647Z,3.27
2018-06-08T05:59:15.733Z,4.73
2018-06-08T06:01:43.876Z,3.33
2018-06-08T06:04:11.961Z,3.23
2018-06-08T06:06:40.032Z,3.53
2018-06-08T06:09:08.943Z,3.00
2018-06-08T06:11:37.170Z,3.00
2018-06-08T06:14:05.245Z,3.00
2018-06-08T06:16:33.318Z,3.27
2018-06-08T06:19:01.464Z,2.90
2018-06-08T06:21:29.601Z,3.30
2018-06-08T06:23:57.715Z,3.00
2018-06-08T06:26:25.714Z,3.50
2018-06-08T06:28:53.802Z,3.10
2018-06-08T06:31:21.922Z,3.27
2018-06-08T06:33:50.019Z,3.20
2018-06-08T06:36:18.115Z,3.43
2018-06-08T06:38:46.268Z,2.83
2018-06-08T06:41:14.386Z,3.10
2018-06-08T06:43:42.489Z,3.40
2018-06-08T06:46:10.607Z,3.77
2018-06-08T06:48:38.683Z,3.40
2018-06-08T06:51:06.878Z,3.47
2018-06-08T06:53:34.984Z,3.30
2018-06-08T06:56:03.178Z,3.17
2018-06-08T06:58:31.279Z,2.93
2018-06-08T07:00:59.389Z,3.40
2018-06-08T07:03:27.521Z,3.50
2018-06-08T07:05:55.629Z,3.07
2018-06-08T07:08:23.721Z,4.17
2018-06-08T07:10:51.790Z,3.50
2018-06-08T07:13:19.909Z,3.50
2018-06-08T07:15:48.135Z,3.10
2018-06-08T07:18:16.232Z,3.13
2018-06-08T07:20:44.362Z,3.13
2018-06-08T07:23:12.464Z,2.90
2018-06-08T07:25:40.554Z,3.13
2018-06-08T07:28:08.676Z,3.37
2018-06-08T07:30:36.770Z,2.83
2018-06-08T07:33:04.915Z,3.10
2018-06-08T07:35:33.056Z,2.70
2018-06-08T07:38:01.142Z,3.37
2018-06-08T07:40:29.259Z,2.80
2018-06-08T07:42:57.358Z,3.03
2018-06-08T07:45:25.503Z,3.10
2018-06-08T07:47:53.611Z,2.90
2018-06-08T07:50:21.723Z,2.90
2018-06-08T07:52:49.587Z,2.93
2018-06-08T07:55:17.678Z,2.93
2018-06-08T07:57:45.797Z,2.80
2018-06-08T08:00:13.871Z,2.53
2018-06-08T08:02:41.941Z,3.20
2018-06-08T08:05:10.045Z,2.80
2018-06-08T08:07:38.148Z,2.30
2018-06-08T08:10:06.269Z,2.30
2018-06-08T08:12:34.334Z,2.20
2018-06-08T08:15:02.456Z,2.30
2018-06-08T08:17:30.535Z,2.43
2018-06-08T08:19:58.634Z,2.33
2018-06-08T08:22:26.738Z,1.80
2018-06-08T08:24:54.906Z,2.07
2018-06-08T08:27:23.037Z,2.13
2018-06-08T08:29:50.965Z,2.03
2018-06-08T08:32:19.063Z,2.13
2018-06-08T08:34:46.957Z,2.00
2018-06-08T08:37:15.047Z,2.30
2018-06-08T08:39:43.211Z,2.00
2018-06-08T08:42:11.317Z,2.40
2018-06-08T08:44:39.401Z,2.47
2018-06-08T08:47:07.542Z,2.00
2018-06-08T08:49:35.679Z,2.10
2018-06-08T08:52:03.855Z,2.10
2018-06-08T08:54:31.923Z,1.70
2018-06-08T08:57:00.126Z,1.80
2018-06-08T08:59:28.233Z,2.20
2018-06-08T09:01:56.409Z,1.97
2018-06-08T09:04:24.556Z,1.73
2018-06-08T09:06:52.717Z,1.80
2018-06-08T09:09:20.826Z,2.00
2018-06-08T09:11:48.978Z,1.90
2018-06-08T09:14:17.071Z,1.77
2018-06-08T09:16:45.200Z,1.73
2018-06-08T09:19:13.165Z,2.00
2018-06-08T09:21:41.260Z,2.00
2018-06-08T09:24:09.364Z,1.90
2018-06-08T09:26:37.417Z,2.07
2018-06-08T09:29:05.521Z,2.30
2018-06-08T09:31:33.619Z,2.33
2018-06-08T09:34:01.718Z,2.23
2018-06-08T09:36:29.584Z,2.10
2018-06-08T09:38:57.668Z,1.90
2018-06-08T09:41:25.776Z,2.40
2018-06-08T09:43:53.890Z,2.37
2018-06-08T09:46:22.028Z,2.30
2018-06-08T09:48:50.139Z,2.33
2018-06-08T09:51:18.030Z,2.37
2018-06-08T09:53:46.190Z,1.90
2018-06-08T09:56:14.320Z,1.97
2018-06-08T09:58:42.442Z,2.00
2018-06-08T10:01:10.557Z,2.20
2018-06-08T10:03:38.629Z,1.90
2018-06-08T10:06:06.751Z,2.30
2018-06-08T10:08:34.844Z,2.27
2018-06-08T10:11:02.907Z,2.53
2018-06-08T10:13:30.969Z,2.40
2018-06-08T10:15:59.111Z,2.50
2018-06-08T10:18:27.181Z,1.93
2018-06-08T10:20:55.292Z,1.90
2018-06-08T10:23:23.220Z,1.90
2018-06-08T10:25:51.327Z,2.23
2018-06-08T10:28:19.493Z,2.30
2018-06-08T10:30:47.548Z,2.40
2018-06-08T10:33:15.649Z,2.27
2018-06-08T10:35:43.738Z,1.90
2018-06-08T10:38:11.879Z,2.05
2018-06-08T10:40:39.995Z,1.87
2018-06-08T10:43:08.143Z,2.02
2018-06-08T10:45:36.279Z,2.13
2018-06-08T10:48:04.679Z,2.30
2018-06-08T10:50:32.758Z,2.20
2018-06-08T10:53:00.855Z,2.20
2018-06-08T10:55:28.983Z,1.90
2018-06-08T10:57:57.056Z,2.13
2018-06-08T11:00:25.159Z,2.10
2018-06-08T11:02:53.225Z,2.10
2018-06-08T11:05:21.347Z,2.42
2018-06-08T11:07:49.425Z,2.00
2018-06-08T11:10:17.485Z,2.00
2018-06-08T11:12:45.592Z,1.73
2018-06-08T11:15:13.682Z,1.60
2018-06-08T11:17:41.783Z,1.75
2018-06-08T11:20:09.890Z,2.08
2018-06-08T11:22:37.953Z,1.95
2018-06-08T11:25:06.050Z,2.10
2018-06-08T11:27:34.144Z,2.58
2018-06-08T11:30:02.249Z,3.13
2018-06-08T11:32:30.356Z,1.90
2018-06-08T11:34:58.525Z,1.33
2018-06-08T11:37:26.559Z,1.97
2018-06-08T11:39:54.704Z,2.00
2018-06-08T11:42:22.783Z,1.70
2018-06-08T11:44:51.409Z,1.70
2018-06-08T11:47:19.484Z,1.60
2018-06-08T11:49:48.235Z,1.70
2018-06-08T11:52:16.375Z,2.00
2018-06-08T11:54:44.564Z,1.57
2018-06-08T11:57:12.646Z,1.60
2018-06-08T11:59:41.118Z,1.80
2018-06-08T12:02:15.983Z,1.75
2018-06-08T12:04:44.075Z,1.20
2018-06-08T12:07:12.170Z,1.30
2018-06-08T12:09:40.633Z,1.52
2018-06-08T12:12:08.737Z,1.60
2018-06-08T12:14:36.888Z,1.70
2018-06-08T12:17:04.989Z,1.85
2018-06-08T12:19:33.650Z,1.90
2018-06-08T12:22:01.731Z,1.82
2018-06-08T12:24:29.803Z,1.60
2018-06-08T12:26:57.870Z,1.52
2018-06-08T12:29:25.991Z,1.60
2018-06-08T12:31:54.131Z,1.60
2018-06-08T12:34:22.312Z,1.80
2018-06-08T12:36:50.177Z,1.30
2018-06-08T12:39:18.250Z,1.62
2018-06-08T12:41:46.482Z,1.72
2018-06-08T12:44:15.376Z,1.80
2018-06-08T12:46:43.468Z,1.80
2018-06-08T12:49:11.586Z,2.17
2018-06-08T12:51:39.676Z,1.62
2018-06-08T12:54:07.863Z,1.77
2018-06-08T12:56:35.966Z,1.90
2018-06-08T12:59:04.314Z,2.27
2018-06-08T13:01:32.442Z,1.67
2018-06-08T13:04:00.524Z,1.82
2018-06-08T13:06:28.624Z,1.90
2018-06-08T13:08:56.845Z,1.90
2018-06-08T13:11:24.955Z,1.80
2018-06-08T13:13:53.060Z,2.12
2018-06-08T13:16:21.171Z,1.67
2018-06-08T13:18:49.266Z,2.10
2018-06-08T13:21:17.271Z,1.95
2018-06-08T13:23:45.292Z,2.70
2018-06-08T13:26:13.378Z,2.00
2018-06-08T13:28:41.524Z,2.50
2018-06-08T13:31:09.731Z,2.90
2018-06-08T13:33:37.801Z,2.40
2018-06-08T13:36:05.901Z,2.30
2018-06-08T13:38:34.015Z,2.42
2018-06-08T13:41:02.084Z,2.60
2018-06-08T13:43:30.223Z,2.47
2018-06-08T13:45:58.325Z,2.10
2018-06-08T13:48:26.497Z,2.20
2018-06-08T13:50:54.651Z,2.15
2018-06-08T13:53:22.753Z,2.72
2018-06-08T13:55:50.824Z,6.20
2018-06-08T13:58:18.898Z,5.62
2018-06-08T14:00:47.014Z,4.65
2018-06-08T14:03:15.127Z,3.10
2018-06-08T14:05:43.212Z,6.78
2018-06-08T14:08:11.370Z,3.20
2018-06-08T14:10:39.549Z,3.02
2018-06-08T14:13:07.653Z,4.67
2018-06-08T14:15:35.790Z,8.50
2018-06-08T14:18:04.029Z,2.70
2018-06-08T14:20:39.045Z,3.17
2018-06-08T14:23:07.184Z,2.95
2018-06-08T14:25:35.279Z,3.15
2018-06-08T14:28:03.370Z,3.40
2018-06-08T14:30:31.480Z,2.62
2018-06-08T14:32:59.577Z,2.90
2018-06-08T14:35:27.673Z,2.33
2018-06-08T14:37:55.786Z,2.92
2018-06-08T14:40:23.692Z,2.20
2018-06-08T14:42:51.819Z,2.42
2018-06-08T14:45:19.805Z,2.33
2018-06-08T14:47:47.933Z,2.47
2018-06-08T14:50:16.058Z,2.45
2018-06-08T14:52:44.145Z,2.30
2018-06-08T14:55:12.264Z,2.45
2018-06-08T14:57:40.336Z,2.58
2018-06-08T15:00:08.416Z,4.05
2018-06-08T15:02:36.515Z,3.05
2018-06-08T15:05:04.612Z,2.27
2018-06-08T15:07:32.713Z,2.27
2018-06-08T15:10:00.803Z,2.40
2018-06-08T15:12:28.992Z,1.80
2018-06-08T15:14:57.088Z,2.22
2018-06-08T15:17:25.158Z,2.00
2018-06-08T15:19:53.328Z,2.00
2018-06-08T15:22:21.413Z,2.00
2018-06-08T15:24:49.491Z,2.37
2018-06-08T15:27:17.654Z,2.27
2018-06-08T15:29:45.764Z,2.40
2018-06-08T15:32:13.891Z,2.27
2018-06-08T15:34:41.966Z,2.40
2018-06-08T15:37:10.080Z,2.33
2018-06-08T15:39:38.148Z,2.60
2018-06-08T15:42:06.251Z,2.60
2018-06-08T15:44:34.326Z,2.60
2018-06-08T15:47:02.440Z,2.52
2018-06-08T15:49:30.509Z,2.40
2018-06-08T15:51:58.593Z,2.60
2018-06-08T15:54:27.044Z,2.67
2018-06-08T15:56:55.182Z,2.50
2018-06-08T15:59:23.287Z,2.40
2018-06-08T16:01:51.407Z,2.33
2018-06-08T16:04:19.486Z,2.30
2018-06-08T16:06:47.583Z,2.47
2018-06-08T16:09:15.707Z,2.45
2018-06-08T16:11:43.831Z,2.05
2018-06-08T16:14:12.231Z,2.40
2018-06-08T16:16:40.384Z,2.40
2018-06-08T16:19:08.490Z,2.60
2018-06-08T16:21:36.593Z,2.17
2018-06-08T16:24:04.676Z,2.42
2018-06-08T16:26:32.796Z,2.60
2018-06-08T16:29:00.952Z,2.25
2018-06-08T16:31:29.107Z,2.20
2018-06-08T16:33:57.265Z,2.45
2018-06-08T16:36:25.212Z,2.10
2018-06-08T16:38:53.364Z,2.40
2018-06-08T16:41:21.515Z,2.60
2018-06-08T16:43:49.613Z,2.30
2018-06-08T16:46:17.749Z,2.42
2018-06-08T16:48:45.823Z,2.70
2018-06-08T16:51:13.927Z,2.70
2018-06-08T16:53:42.035Z,2.70
2018-06-08T16:56:10.107Z,3.00
2018-06-08T16:58:38.157Z,2.85
2018-06-08T17:01:06.251Z,3.10
2018-06-08T17:03:34.354Z,2.52
2018-06-08T17:06:02.463Z,2.58
2018-06-08T17:08:30.755Z,2.92
2018-06-08T17:10:58.859Z,3.00
2018-06-08T17:13:26.959Z,2.70
2018-06-08T17:15:55.056Z,2.62
2018-06-08T17:18:23.432Z,3.20
2018-06-08T17:20:51.557Z,3.25
2018-06-08T17:23:20.613Z,2.80
2018-06-08T17:25:48.763Z,2.83
2018-06-08T17:28:16.882Z,2.60
2018-06-08T17:30:45.032Z,2.70
2018-06-08T17:33:13.111Z,3.20
2018-06-08T17:35:41.224Z,2.80
2018-06-08T17:38:09.339Z,2.70
2018-06-08T17:40:37.496Z,2.87
2018-06-08T17:43:05.586Z,2.87
2018-06-08T17:45:33.715Z,3.15
2018-06-08T17:48:01.819Z,3.85
2018-06-08T17:50:29.894Z,3.20
2018-06-08T17:52:57.984Z,4.03
2018-06-08T17:55:26.059Z,3.30
2018-06-08T17:57:54.092Z,3.30
2018-06-08T18:00:22.178Z,2.90
2018-06-08T18:02:50.270Z,2.93
2018-06-08T18:05:18.392Z,2.72
2018-06-08T18:07:46.439Z,2.83
2018-06-08T18:10:14.487Z,2.83
2018-06-08T18:12:42.558Z,3.17
2018-06-08T18:15:10.723Z,2.77
2018-06-08T18:17:38.875Z,3.03
2018-06-08T18:20:06.964Z,3.40
2018-06-08T18:22:35.049Z,2.83
2018-06-08T18:25:03.198Z,3.00
2018-06-08T18:27:31.293Z,3.30
2018-06-08T18:29:59.422Z,2.73
2018-06-08T18:32:27.561Z,3.07
2018-06-08T18:34:55.797Z,3.20
2018-06-08T18:37:24.198Z,3.10
2018-06-08T18:39:52.303Z,3.03
2018-06-08T18:42:20.361Z,3.30
2018-06-08T18:44:48.504Z,2.90
2018-06-08T18:47:16.776Z,3.10
2018-06-08T18:49:44.905Z,2.63
2018-06-08T18:52:13.139Z,3.40
2018-06-08T18:54:41.835Z,3.53
2018-06-08T18:57:09.941Z,4.10
2018-06-08T18:59:38.063Z,3.80
2018-06-08T19:02:06.373Z,3.40
2018-06-08T19:04:34.554Z,3.33
2018-06-08T19:07:02.635Z,3.17
2018-06-08T19:09:30.786Z,3.50
2018-06-08T19:11:58.874Z,3.37
2018-06-08T19:14:26.958Z,3.40
2018-06-08T19:16:55.051Z,3.57
2018-06-08T19:19:23.148Z,3.87
2018-06-08T19:21:51.249Z,3.43
2018-06-08T19:24:19.438Z,3.50
2018-06-08T19:26:47.533Z,3.37
2018-06-08T19:29:15.650Z,3.73
2018-06-08T19:31:43.741Z,3.50
2018-06-08T19:34:11.861Z,3.80
2018-06-08T19:36:40.021Z,3.80
2018-06-08T19:39:09.318Z,3.93
2018-06-08T19:41:37.433Z,3.73
2018-06-08T19:44:05.528Z,3.70
2018-06-08T19:46:33.623Z,3.50
2018-06-08T19:49:01.715Z,4.03
2018-06-08T19:51:29.800Z,3.73
2018-06-08T19:53:57.919Z,3.97
2018-06-08T19:56:26.090Z,4.00
2018-06-08T19:58:54.194Z,4.10
2018-06-08T20:01:22.466Z,4.00
2018-06-08T20:03:50.524Z,3.53
2018-06-08T20:06:18.669Z,3.97
2018-06-08T20:08:46.747Z,4.00
2018-06-08T20:11:14.852Z,4.40
2018-06-08T20:13:42.741Z,4.23
2018-06-08T20:16:10.897Z,4.27
2018-06-08T20:18:38.965Z,3.90
2018-06-08T20:21:07.048Z,4.20
2018-06-08T20:23:35.137Z,4.40
2018-06-08T20:26:03.246Z,4.63
2018-06-08T20:28:31.327Z,4.90
2018-06-08T20:30:59.428Z,4.47
2018-06-08T20:33:27.549Z,4.67
2018-06-08T20:35:55.622Z,4.30
2018-06-08T20:38:23.730Z,4.47
2018-06-08T20:40:51.805Z,3.80
2018-06-08T20:43:19.880Z,4.03
2018-06-08T20:45:47.963Z,3.67
2018-06-08T20:48:16.039Z,3.70
2018-06-08T20:50:44.135Z,3.80
2018-06-08T20:53:12.219Z,4.20
2018-06-08T20:55:40.339Z,3.50
2018-06-08T20:58:18.595Z,3.83
2018-06-08T21:00:46.694Z,4.13
2018-06-08T21:03:14.794Z,3.80
2018-06-08T21:05:42.874Z,3.40
2018-06-08T21:08:10.993Z,3.97
2018-06-08T21:10:39.052Z,4.10
2018-06-08T21:13:07.133Z,3.63
2018-06-08T21:15:35.241Z,3.80
2018-06-08T21:18:03.367Z,3.60
2018-06-08T21:20:31.503Z,3.30
2018-06-08T21:22:59.615Z,3.67
2018-06-08T21:25:27.785Z,3.60
2018-06-08T21:27:55.939Z,3.70
2018-06-08T21:30:24.081Z,3.60
2018-06-08T21:32:52.162Z,3.90
2018-06-08T21:35:20.246Z,3.70
2018-06-08T21:37:48.446Z,4.40
2018-06-08T21:40:16.543Z,3.50
2018-06-08T21:42:44.599Z,3.60
2018-06-08T21:45:12.761Z,3.70
2018-06-08T21:47:40.831Z,3.50
2018-06-08T21:50:08.956Z,3.70
2018-06-08T21:52:37.026Z,4.13
2018-06-08T21:55:04.922Z,3.30
2018-06-08T21:57:33.036Z,3.03
2018-06-08T22:00:01.107Z,3.47
2018-06-08T22:02:29.264Z,3.27
2018-06-08T22:04:57.344Z,3.57
2018-06-08T22:07:25.466Z,2.80
2018-06-08T22:09:53.548Z,3.13
2018-06-08T22:12:21.650Z,2.87
2018-06-08T22:14:49.727Z,4.07
2018-06-08T22:17:17.811Z,2.90
2018-06-08T22:19:45.871Z,3.30
2018-06-08T22:22:13.969Z,3.40
2018-06-08T22:24:42.097Z,3.20
2018-06-08T22:27:10.249Z,3.10
2018-06-08T22:29:38.322Z,3.33
2018-06-08T22:32:06.243Z,3.23
2018-06-08T22:34:34.336Z,3.27
2018-06-08T22:37:02.470Z,3.20
2018-06-08T22:39:30.540Z,3.10
2018-06-08T22:41:58.682Z,3.03
2018-06-08T22:44:26.764Z,3.87
2018-06-08T22:46:54.855Z,3.20
2018-06-08T22:49:22.970Z,3.40
2018-06-08T22:51:51.054Z,2.83
2018-06-08T22:54:19.224Z,2.73
2018-06-08T22:56:47.289Z,2.93
2018-06-08T22:59:15.393Z,3.33
2018-06-08T23:01:43.548Z,2.90
2018-06-08T23:04:11.662Z,3.43
2018-06-08T23:06:39.756Z,3.00
2018-06-08T23:09:08.216Z,2.90
2018-06-08T23:11:36.715Z,3.00
2018-06-08T23:14:04.808Z,2.93
2018-06-08T23:16:32.908Z,3.13
2018-06-08T23:19:00.987Z,3.07
2018-06-08T23:21:29.047Z,3.17
2018-06-08T23:23:57.164Z,3.03
2018-06-08T23:26:25.243Z,2.80
2018-06-08T23:28:53.328Z,3.00
2018-06-08T23:31:21.398Z,3.33
2018-06-08T23:33:49.475Z,3.47
2018-06-08T23:36:17.554Z,3.70
2018-06-08T23:38:46.723Z,3.20
2018-06-08T23:41:14.845Z,3.40
2018-06-08T23:43:42.950Z,3.67
2018-06-08T23:46:11.004Z,2.93
2018-06-08T23:48:39.095Z,3.27
2018-06-08T23:51:07.179Z,3.60
2018-06-08T23:53:35.082Z,4.23
2018-06-08T23:56:03.137Z,4.03
2018-06-08T23:58:31.241Z,4.17
